sensor_id;sensor_type;location;lat;lon;timestamp;P1;durP1;ratioP1;P2;durP2;ratioP2
61570;SDS011;47463;49.884;10.010;2022-09-09T00:00:00;3.6;;;1.4;;
61570;SDS011;47463;49.884;10.010;2022-09-09T00:05:04;6.2;;;1.7;;
61570;SDS011;47463;49.884;10.010;2022-09-09T00:10:00;6.2;;;1.7;;
61570;SDS011;47463;49.884;10.010;2022-09-09T00:15:01;5.1;;;1.6;;
61570;SDS011;47463;49.884;10.010;2022-09-09T00:20:00;5.1;;;1.6;;
61570;SDS011;47463;49.884;10.010;2022-09-09T00:25:02;4.3;;;1.4;;
61570;SDS011;47463;49.884;10.010;2022-09-09T00:30:02;4.3;;;1.4;;
61570;SDS011;47463;49.884;10.010;2022-09-09T00:35:01;3.6;;;1.6;;
61570;SDS011;47463;49.884;10.010;2022-09-09T00:40:01;3.6;;;1.6;;
61570;SDS011;47463;49.884;10.010;2022-09-09T00:45:01;5.5;;;2.2;;
61570;SDS011;47463;49.884;10.010;2022-09-09T00:50:00;5.5;;;2.2;;
61570;SDS011;47463;49.884;10.010;2022-09-09T00:55:03;5.9;;;2.3;;
61570;SDS011;47463;49.884;10.010;2022-09-09T01:00:15;5.9;;;2.3;;
61570;SDS011;47463;49.884;10.010;2022-09-09T01:05:01;4.3;;;2.2;;
61570;SDS011;47463;49.884;10.010;2022-09-09T01:10:00;4.3;;;2.2;;
61570;SDS011;47463;49.884;10.010;2022-09-09T01:15:02;5.8;;;1.8;;
61570;SDS011;47463;49.884;10.010;2022-09-09T01:20:04;5.8;;;1.8;;
61570;SDS011;47463;49.884;10.010;2022-09-09T01:25:07;7.1;;;2;;
61570;SDS011;47463;49.884;10.010;2022-09-09T01:30:00;7.1;;;2;;
61570;SDS011;47463;49.884;10.010;2022-09-09T01:35:00;4.7;;;1.9;;
61570;SDS011;47463;49.884;10.010;2022-09-09T01:40:00;4.7;;;1.9;;
61570;SDS011;47463;49.884;10.010;2022-09-09T01:45:00;4.8;;;1.6;;
61570;SDS011;47463;49.884;10.010;2022-09-09T01:50:00;4.8;;;1.6;;
61570;SDS011;47463;49.884;10.010;2022-09-09T01:55:00;4.2;;;1.6;;
61570;SDS011;47463;49.884;10.010;2022-09-09T02:00:01;4.2;;;1.6;;
61570;SDS011;47463;49.884;10.010;2022-09-09T02:05:03;6;;;1.7;;
61570;SDS011;47463;49.884;10.010;2022-09-09T02:10:01;6;;;1.7;;
61570;SDS011;47463;49.884;10.010;2022-09-09T02:15:01;4.1;;;1.8;;
61570;SDS011;47463;49.884;10.010;2022-09-09T02:20:04;4.1;;;1.8;;
61570;SDS011;47463;49.884;10.010;2022-09-09T02:25:00;4.3;;;1.5;;
61570;SDS011;47463;49.884;10.010;2022-09-09T02:30:00;4.3;;;1.5;;
61570;SDS011;47463;49.884;10.010;2022-09-09T02:35:00;4.9;;;1.7;;
61570;SDS011;47463;49.884;10.010;2022-09-09T02:40:00;4.9;;;1.7;;
61570;SDS011;47463;49.884;10.010;2022-09-09T02:45:00;4.9;;;1.5;;
61570;SDS011;47463;49.884;10.010;2022-09-09T02:50:02;4.9;;;1.5;;
61570;SDS011;47463;49.884;10.010;2022-09-09T02:55:02;5.2;;;1.5;;
61570;SDS011;47463;49.884;10.010;2022-09-09T03:00:00;5.2;;;1.5;;
61570;SDS011;47463;49.884;10.010;2022-09-09T03:05:00;4.5;;;1.6;;
61570;SDS011;47463;49.884;10.010;2022-09-09T03:10:00;4.5;;;1.6;;
61570;SDS011;47463;49.884;10.010;2022-09-09T03:15:00;5.7;;;1.7;;
61570;SDS011;47463;49.884;10.010;2022-09-09T03:20:00;5.7;;;1.7;;
61570;SDS011;47463;49.884;10.010;2022-09-09T03:25:00;5.7;;;1.6;;
61570;SDS011;47463;49.884;10.010;2022-09-09T03:30:00;5.7;;;1.6;;
61570;SDS011;47463;49.884;10.010;2022-09-09T03:35:00;5.7;;;1.6;;
61570;SDS011;47463;49.884;10.010;2022-09-09T03:40:00;5.7;;;1.6;;
61570;SDS011;47463;49.884;10.010;2022-09-09T03:45:00;6.3;;;1.9;;
61570;SDS011;47463;49.884;10.010;2022-09-09T03:50:00;6.3;;;1.9;;
61570;SDS011;47463;49.884;10.010;2022-09-09T03:55:00;3.9;;;1.9;;
61570;SDS011;47463;49.884;10.010;2022-09-09T04:00:00;3.9;;;1.9;;
61570;SDS011;47463;49.884;10.010;2022-09-09T04:05:00;5.9;;;2.3;;
61570;SDS011;47463;49.884;10.010;2022-09-09T04:10:00;5.9;;;2.3;;
61570;SDS011;47463;49.884;10.010;2022-09-09T04:15:00;6.3;;;2.2;;
61570;SDS011;47463;49.884;10.010;2022-09-09T04:20:00;6.3;;;2.2;;
61570;SDS011;47463;49.884;10.010;2022-09-09T04:25:00;5.1;;;1.9;;
61570;SDS011;47463;49.884;10.010;2022-09-09T04:30:00;5.1;;;1.9;;
61570;SDS011;47463;49.884;10.010;2022-09-09T04:35:00;5.6;;;2;;
61570;SDS011;47463;49.884;10.010;2022-09-09T04:40:00;5.6;;;2;;
61570;SDS011;47463;49.884;10.010;2022-09-09T04:45:00;4.7;;;2.1;;
61570;SDS011;47463;49.884;10.010;2022-09-09T04:50:00;4.7;;;2.1;;
61570;SDS011;47463;49.884;10.010;2022-09-09T04:55:00;2.9;;;1.6;;
61570;SDS011;47463;49.884;10.010;2022-09-09T05:00:00;2.9;;;1.6;;
61570;SDS011;47463;49.884;10.010;2022-09-09T05:05:00;4.5;;;2.1;;
61570;SDS011;47463;49.884;10.010;2022-09-09T05:10:00;4.5;;;2.1;;
61570;SDS011;47463;49.884;10.010;2022-09-09T05:15:00;5.4;;;2.3;;
61570;SDS011;47463;49.884;10.010;2022-09-09T05:20:00;5.4;;;2.3;;
61570;SDS011;47463;49.884;10.010;2022-09-09T05:25:00;4.1;;;2.3;;
61570;SDS011;47463;49.884;10.010;2022-09-09T05:30:00;4.1;;;2.3;;
61570;SDS011;47463;49.884;10.010;2022-09-09T05:35:00;4.6;;;2.1;;
61570;SDS011;47463;49.884;10.010;2022-09-09T05:40:00;4.6;;;2.1;;
61570;SDS011;47463;49.884;10.010;2022-09-09T05:45:00;8.9;;;2.1;;
61570;SDS011;47463;49.884;10.010;2022-09-09T05:50:00;8.9;;;2.1;;
61570;SDS011;47463;49.884;10.010;2022-09-09T05:55:00;5.3;;;2.1;;
61570;SDS011;47463;49.884;10.010;2022-09-09T06:00:00;5.3;;;2.1;;
61570;SDS011;47463;49.884;10.010;2022-09-09T06:05:00;5.2;;;1.7;;
61570;SDS011;47463;49.884;10.010;2022-09-09T06:10:00;5.2;;;1.7;;
61570;SDS011;47463;49.884;10.010;2022-09-09T06:15:00;5.8;;;1.8;;
61570;SDS011;47463;49.884;10.010;2022-09-09T06:20:00;5.8;;;1.8;;
61570;SDS011;47463;49.884;10.010;2022-09-09T06:25:00;2.9;;;1.5;;
61570;SDS011;47463;49.884;10.010;2022-09-09T06:30:00;2.9;;;1.5;;
61570;SDS011;47463;49.884;10.010;2022-09-09T06:35:00;4;;;1.4;;
61570;SDS011;47463;49.884;10.010;2022-09-09T06:40:00;4;;;1.4;;
61570;SDS011;47463;49.884;10.010;2022-09-09T06:45:00;3.5;;;1.4;;
61570;SDS011;47463;49.884;10.010;2022-09-09T06:50:00;3.5;;;1.4;;
61570;SDS011;47463;49.884;10.010;2022-09-09T06:55:00;3.6;;;1.4;;
61570;SDS011;47463;49.884;10.010;2022-09-09T07:00:00;3.6;;;1.4;;
61570;SDS011;47463;49.884;10.010;2022-09-09T07:05:00;4.6;;;1.3;;
61570;SDS011;47463;49.884;10.010;2022-09-09T07:10:00;4.6;;;1.3;;
61570;SDS011;47463;49.884;10.010;2022-09-09T07:15:00;4.1;;;1;;
61570;SDS011;47463;49.884;10.010;2022-09-09T07:20:00;4.1;;;1;;
61570;SDS011;47463;49.884;10.010;2022-09-09T07:25:00;3.1;;;0.9;;
61570;SDS011;47463;49.884;10.010;2022-09-09T07:30:00;3.1;;;0.9;;
61570;SDS011;47463;49.884;10.010;2022-09-09T07:35:00;3.6;;;1;;
61570;SDS011;47463;49.884;10.010;2022-09-09T07:40:00;3.6;;;1;;
61570;SDS011;47463;49.884;10.010;2022-09-09T07:45:00;4.2;;;1.4;;
61570;SDS011;47463;49.884;10.010;2022-09-09T07:50:00;4.2;;;1.4;;
61570;SDS011;47463;49.884;10.010;2022-09-09T07:55:00;4.2;;;0.9;;
61570;SDS011;47463;49.884;10.010;2022-09-09T08:00:00;4.2;;;0.9;;
61570;SDS011;47463;49.884;10.010;2022-09-09T08:05:00;4.5;;;1.2;;
61570;SDS011;47463;49.884;10.010;2022-09-09T08:10:00;4.5;;;1.2;;
61570;SDS011;47463;49.884;10.010;2022-09-09T08:15:00;10.3;;;1.8;;
61570;SDS011;47463;49.884;10.010;2022-09-09T08:20:00;10.3;;;1.8;;
61570;SDS011;47463;49.884;10.010;2022-09-09T08:25:00;3.6;;;1;;
61570;SDS011;47463;49.884;10.010;2022-09-09T08:30:00;3.6;;;1;;
61570;SDS011;47463;49.884;10.010;2022-09-09T08:35:00;5.9;;;1.2;;
61570;SDS011;47463;49.884;10.010;2022-09-09T08:40:00;5.9;;;1.2;;
61570;SDS011;47463;49.884;10.010;2022-09-09T08:45:09;5.2;;;1.4;;
61570;SDS011;47463;49.884;10.010;2022-09-09T08:50:02;5.2;;;1.4;;
61570;SDS011;47463;49.884;10.010;2022-09-09T08:55:02;4.8;;;1.4;;
61570;SDS011;47463;49.884;10.010;2022-09-09T09:00:00;4.8;;;1.4;;
61570;SDS011;47463;49.884;10.010;2022-09-09T09:05:04;3.7;;;1.2;;
61570;SDS011;47463;49.884;10.010;2022-09-09T09:10:01;3.7;;;1.2;;
61570;SDS011;47463;49.884;10.010;2022-09-09T09:15:00;4.8;;;1.4;;
61570;SDS011;47463;49.884;10.010;2022-09-09T09:20:00;4.8;;;1.4;;
61570;SDS011;47463;49.884;10.010;2022-09-09T09:25:01;6.8;;;1.4;;
61570;SDS011;47463;49.884;10.010;2022-09-09T09:30:00;6.8;;;1.4;;
61570;SDS011;47463;49.884;10.010;2022-09-09T09:35:00;5.8;;;1.8;;
61570;SDS011;47463;49.884;10.010;2022-09-09T09:40:07;5.8;;;1.8;;
61570;SDS011;47463;49.884;10.010;2022-09-09T09:45:06;7.8;;;1.6;;
61570;SDS011;47463;49.884;10.010;2022-09-09T09:50:00;7.8;;;1.6;;
61570;SDS011;47463;49.884;10.010;2022-09-09T09:55:02;5.7;;;1.5;;
61570;SDS011;47463;49.884;10.010;2022-09-09T10:00:00;5.7;;;1.5;;
61570;SDS011;47463;49.884;10.010;2022-09-09T10:05:00;6.4;;;1.3;;
61570;SDS011;47463;49.884;10.010;2022-09-09T10:10:00;6.4;;;1.3;;
61570;SDS011;47463;49.884;10.010;2022-09-09T10:15:00;5.5;;;1.7;;
61570;SDS011;47463;49.884;10.010;2022-09-09T10:20:04;5.5;;;1.7;;
61570;SDS011;47463;49.884;10.010;2022-09-09T10:25:34;6.6;;;1.3;;
61570;SDS011;47463;49.884;10.010;2022-09-09T10:30:01;6.6;;;1.3;;
61570;SDS011;47463;49.884;10.010;2022-09-09T10:35:02;7.4;;;1.7;;
61570;SDS011;47463;49.884;10.010;2022-09-09T10:40:01;7.4;;;1.7;;
61570;SDS011;47463;49.884;10.010;2022-09-09T10:45:02;8.4;;;1.6;;
61570;SDS011;47463;49.884;10.010;2022-09-09T10:50:08;8.4;;;1.6;;
61570;SDS011;47463;49.884;10.010;2022-09-09T10:55:00;13.5;;;2.4;;
61570;SDS011;47463;49.884;10.010;2022-09-09T11:00:01;13.5;;;2.4;;
61570;SDS011;47463;49.884;10.010;2022-09-09T11:05:01;7.2;;;1.3;;
61570;SDS011;47463;49.884;10.010;2022-09-09T11:10:01;7.2;;;1.3;;
61570;SDS011;47463;49.884;10.010;2022-09-09T11:15:02;3.1;;;0.7;;
61570;SDS011;47463;49.884;10.010;2022-09-09T11:20:00;3.1;;;0.7;;
61570;SDS011;47463;49.884;10.010;2022-09-09T11:25:01;2.4;;;0.5;;
61570;SDS011;47463;49.884;10.010;2022-09-09T11:30:13;2.4;;;0.5;;
61570;SDS011;47463;49.884;10.010;2022-09-09T11:35:01;4.1;;;0.6;;
61570;SDS011;47463;49.884;10.010;2022-09-09T11:40:07;4.1;;;0.6;;
61570;SDS011;47463;49.884;10.010;2022-09-09T11:45:08;4.7;;;0.8;;
61570;SDS011;47463;49.884;10.010;2022-09-09T11:50:08;4.7;;;0.8;;
61570;SDS011;47463;49.884;10.010;2022-09-09T11:55:00;3;;;0.9;;
61570;SDS011;47463;49.884;10.010;2022-09-09T12:00:00;3;;;0.9;;
61570;SDS011;47463;49.884;10.010;2022-09-09T12:05:00;5.7;;;1.3;;
61570;SDS011;47463;49.884;10.010;2022-09-09T12:10:02;5.7;;;1.3;;
61570;SDS011;47463;49.884;10.010;2022-09-09T12:15:02;3.5;;;1.1;;
61570;SDS011;47463;49.884;10.010;2022-09-09T12:20:00;3.5;;;1.1;;
61570;SDS011;47463;49.884;10.010;2022-09-09T12:25:00;5.5;;;1.3;;
61570;SDS011;47463;49.884;10.010;2022-09-09T12:30:01;5.5;;;1.3;;
61570;SDS011;47463;49.884;10.010;2022-09-09T12:35:00;3.5;;;1.3;;
61570;SDS011;47463;49.884;10.010;2022-09-09T12:40:00;3.5;;;1.3;;
61570;SDS011;47463;49.884;10.010;2022-09-09T12:45:00;4.8;;;1.3;;
61570;SDS011;47463;49.884;10.010;2022-09-09T12:50:00;4.8;;;1.3;;
61570;SDS011;47463;49.884;10.010;2022-09-09T12:55:00;4.6;;;1.4;;
61570;SDS011;47463;49.884;10.010;2022-09-09T13:00:04;4.6;;;1.4;;
61570;SDS011;47463;49.884;10.010;2022-09-09T13:05:06;5.4;;;1.2;;
61570;SDS011;47463;49.884;10.010;2022-09-09T13:10:00;5.4;;;1.2;;
61570;SDS011;47463;49.884;10.010;2022-09-09T13:15:00;4.9;;;1.3;;
61570;SDS011;47463;49.884;10.010;2022-09-09T13:20:00;4.9;;;1.3;;
61570;SDS011;47463;49.884;10.010;2022-09-09T13:25:00;3.1;;;1.1;;
61570;SDS011;47463;49.884;10.010;2022-09-09T13:30:00;3.1;;;1.1;;
61570;SDS011;47463;49.884;10.010;2022-09-09T13:35:00;5.3;;;1.1;;
61570;SDS011;47463;49.884;10.010;2022-09-09T13:40:00;5.3;;;1.1;;
61570;SDS011;47463;49.884;10.010;2022-09-09T13:45:00;3.7;;;1.1;;
61570;SDS011;47463;49.884;10.010;2022-09-09T13:50:09;3.7;;;1.1;;
61570;SDS011;47463;49.884;10.010;2022-09-09T13:55:00;3.8;;;1;;
61570;SDS011;47463;49.884;10.010;2022-09-09T14:00:00;3.8;;;1;;
61570;SDS011;47463;49.884;10.010;2022-09-09T14:05:00;4.5;;;0.9;;
61570;SDS011;47463;49.884;10.010;2022-09-09T14:10:00;4.5;;;0.9;;
61570;SDS011;47463;49.884;10.010;2022-09-09T14:15:00;3.6;;;0.9;;
61570;SDS011;47463;49.884;10.010;2022-09-09T14:20:00;3.6;;;0.9;;
61570;SDS011;47463;49.884;10.010;2022-09-09T14:25:00;3.4;;;0.9;;
61570;SDS011;47463;49.884;10.010;2022-09-09T14:30:00;3.4;;;0.9;;
61570;SDS011;47463;49.884;10.010;2022-09-09T14:35:00;3.5;;;0.9;;
61570;SDS011;47463;49.884;10.010;2022-09-09T14:40:00;3.5;;;0.9;;
61570;SDS011;47463;49.884;10.010;2022-09-09T14:45:00;3;;;0.8;;
61570;SDS011;47463;49.884;10.010;2022-09-09T14:50:00;3;;;0.8;;
61570;SDS011;47463;49.884;10.010;2022-09-09T14:55:00;6.2;;;1.3;;
61570;SDS011;47463;49.884;10.010;2022-09-09T15:00:00;6.2;;;1.3;;
61570;SDS011;47463;49.884;10.010;2022-09-09T15:05:00;6.3;;;1.2;;
61570;SDS011;47463;49.884;10.010;2022-09-09T15:10:00;6.3;;;1.2;;
61570;SDS011;47463;49.884;10.010;2022-09-09T15:15:00;4.8;;;1.2;;
61570;SDS011;47463;49.884;10.010;2022-09-09T15:20:00;4.8;;;1.2;;
61570;SDS011;47463;49.884;10.010;2022-09-09T15:25:00;4.6;;;0.9;;
61570;SDS011;47463;49.884;10.010;2022-09-09T15:30:00;4.6;;;0.9;;
61570;SDS011;47463;49.884;10.010;2022-09-09T15:35:00;2.7;;;1.1;;
61570;SDS011;47463;49.884;10.010;2022-09-09T15:40:00;2.7;;;1.1;;
61570;SDS011;47463;49.884;10.010;2022-09-09T15:45:00;4.3;;;1.4;;
61570;SDS011;47463;49.884;10.010;2022-09-09T15:50:00;4.3;;;1.4;;
61570;SDS011;47463;49.884;10.010;2022-09-09T15:55:00;3.9;;;0.9;;
61570;SDS011;47463;49.884;10.010;2022-09-09T16:00:00;3.9;;;0.9;;
61570;SDS011;47463;49.884;10.010;2022-09-09T16:05:00;2.8;;;1;;
61570;SDS011;47463;49.884;10.010;2022-09-09T16:10:00;2.8;;;1;;
61570;SDS011;47463;49.884;10.010;2022-09-09T16:15:00;3.5;;;0.9;;
61570;SDS011;47463;49.884;10.010;2022-09-09T16:20:00;3.5;;;0.9;;
61570;SDS011;47463;49.884;10.010;2022-09-09T16:25:00;4.1;;;1.2;;
61570;SDS011;47463;49.884;10.010;2022-09-09T16:30:00;4.1;;;1.2;;
61570;SDS011;47463;49.884;10.010;2022-09-09T16:35:00;4.8;;;1;;
61570;SDS011;47463;49.884;10.010;2022-09-09T16:40:00;4.8;;;1;;
61570;SDS011;47463;49.884;10.010;2022-09-09T16:45:00;4.2;;;1.1;;
61570;SDS011;47463;49.884;10.010;2022-09-09T16:50:00;4.2;;;1.1;;
61570;SDS011;47463;49.884;10.010;2022-09-09T16:55:00;2.9;;;1.1;;
61570;SDS011;47463;49.884;10.010;2022-09-09T17:00:00;2.9;;;1.1;;
61570;SDS011;47463;49.884;10.010;2022-09-09T17:05:00;3.5;;;0.9;;
61570;SDS011;47463;49.884;10.010;2022-09-09T17:10:00;3.5;;;0.9;;
61570;SDS011;47463;49.884;10.010;2022-09-09T17:15:00;5.2;;;1;;
61570;SDS011;47463;49.884;10.010;2022-09-09T17:20:00;5.2;;;1;;
61570;SDS011;47463;49.884;10.010;2022-09-09T17:25:00;3.2;;;1;;
61570;SDS011;47463;49.884;10.010;2022-09-09T17:30:00;3.2;;;1;;
61570;SDS011;47463;49.884;10.010;2022-09-09T17:35:00;3.2;;;1.2;;
61570;SDS011;47463;49.884;10.010;2022-09-09T17:40:00;3.2;;;1.2;;
61570;SDS011;47463;49.884;10.010;2022-09-09T17:45:00;3.1;;;1;;
61570;SDS011;47463;49.884;10.010;2022-09-09T17:50:00;3.1;;;1;;
61570;SDS011;47463;49.884;10.010;2022-09-09T17:55:00;3.5;;;1;;
61570;SDS011;47463;49.884;10.010;2022-09-09T18:00:00;3.5;;;1;;
61570;SDS011;47463;49.884;10.010;2022-09-09T18:05:00;2.7;;;0.8;;
61570;SDS011;47463;49.884;10.010;2022-09-09T18:10:00;2.7;;;0.8;;
61570;SDS011;47463;49.884;10.010;2022-09-09T18:15:00;2.8;;;0.9;;
61570;SDS011;47463;49.884;10.010;2022-09-09T18:20:00;2.8;;;0.9;;
61570;SDS011;47463;49.884;10.010;2022-09-09T18:25:00;2.9;;;0.8;;
61570;SDS011;47463;49.884;10.010;2022-09-09T18:30:00;2.9;;;0.8;;
61570;SDS011;47463;49.884;10.010;2022-09-09T18:35:00;3;;;0.8;;
61570;SDS011;47463;49.884;10.010;2022-09-09T18:40:00;3;;;0.8;;
61570;SDS011;47463;49.884;10.010;2022-09-09T18:45:00;4.1;;;0.8;;
61570;SDS011;47463;49.884;10.010;2022-09-09T18:50:00;4.1;;;0.8;;
61570;SDS011;47463;49.884;10.010;2022-09-09T18:55:00;5.2;;;1.1;;
61570;SDS011;47463;49.884;10.010;2022-09-09T19:00:00;5.2;;;1.1;;
61570;SDS011;47463;49.884;10.010;2022-09-09T19:05:00;3.4;;;1.2;;
61570;SDS011;47463;49.884;10.010;2022-09-09T19:10:00;3.4;;;1.2;;
61570;SDS011;47463;49.884;10.010;2022-09-09T19:15:00;3.5;;;1.1;;
61570;SDS011;47463;49.884;10.010;2022-09-09T19:20:00;3.5;;;1.1;;
61570;SDS011;47463;49.884;10.010;2022-09-09T19:25:00;4.2;;;1.3;;
61570;SDS011;47463;49.884;10.010;2022-09-09T19:30:00;4.2;;;1.3;;
61570;SDS011;47463;49.884;10.010;2022-09-09T19:35:00;2.4;;;1.1;;
61570;SDS011;47463;49.884;10.010;2022-09-09T19:40:00;2.4;;;1.1;;
61570;SDS011;47463;49.884;10.010;2022-09-09T19:45:00;3.7;;;1;;
61570;SDS011;47463;49.884;10.010;2022-09-09T19:50:00;3.7;;;1;;
61570;SDS011;47463;49.884;10.010;2022-09-09T19:55:00;6;;;1.1;;
61570;SDS011;47463;49.884;10.010;2022-09-09T20:00:00;6;;;1.1;;
61570;SDS011;47463;49.884;10.010;2022-09-09T20:05:00;3.1;;;1.1;;
61570;SDS011;47463;49.884;10.010;2022-09-09T20:10:00;3.1;;;1.1;;
61570;SDS011;47463;49.884;10.010;2022-09-09T20:15:00;2.9;;;1.1;;
61570;SDS011;47463;49.884;10.010;2022-09-09T20:20:00;2.9;;;1.1;;
61570;SDS011;47463;49.884;10.010;2022-09-09T20:25:00;3.1;;;1.3;;
61570;SDS011;47463;49.884;10.010;2022-09-09T20:30:00;3.1;;;1.3;;
61570;SDS011;47463;49.884;10.010;2022-09-09T20:35:00;2.8;;;1.2;;
61570;SDS011;47463;49.884;10.010;2022-09-09T20:40:00;2.8;;;1.2;;
61570;SDS011;47463;49.884;10.010;2022-09-09T20:45:00;2.7;;;1.1;;
61570;SDS011;47463;49.884;10.010;2022-09-09T20:50:00;2.7;;;1.1;;
61570;SDS011;47463;49.884;10.010;2022-09-09T20:55:00;3.7;;;1.2;;
61570;SDS011;47463;49.884;10.010;2022-09-09T21:00:00;3.7;;;1.2;;
61570;SDS011;47463;49.884;10.010;2022-09-09T21:05:00;2.9;;;1.1;;
61570;SDS011;47463;49.884;10.010;2022-09-09T21:10:00;2.9;;;1.1;;
61570;SDS011;47463;49.884;10.010;2022-09-09T21:15:00;3.1;;;1.1;;
61570;SDS011;47463;49.884;10.010;2022-09-09T21:20:00;3.1;;;1.1;;
61570;SDS011;47463;49.884;10.010;2022-09-09T21:25:00;1.9;;;1.1;;
61570;SDS011;47463;49.884;10.010;2022-09-09T21:30:00;1.9;;;1.1;;
61570;SDS011;47463;49.884;10.010;2022-09-09T21:35:00;4.6;;;1.2;;
61570;SDS011;47463;49.884;10.010;2022-09-09T21:40:00;4.6;;;1.2;;
61570;SDS011;47463;49.884;10.010;2022-09-09T21:45:00;3.4;;;1.1;;
61570;SDS011;47463;49.884;10.010;2022-09-09T21:50:00;3.4;;;1.1;;
61570;SDS011;47463;49.884;10.010;2022-09-09T21:55:00;2.2;;;0.8;;
61570;SDS011;47463;49.884;10.010;2022-09-09T22:00:00;2.2;;;0.8;;
61570;SDS011;47463;49.884;10.010;2022-09-09T22:05:00;3;;;0.8;;
61570;SDS011;47463;49.884;10.010;2022-09-09T22:10:00;3;;;0.8;;
61570;SDS011;47463;49.884;10.010;2022-09-09T22:15:00;1.7;;;0.6;;
61570;SDS011;47463;49.884;10.010;2022-09-09T22:20:00;1.7;;;0.6;;
61570;SDS011;47463;49.884;10.010;2022-09-09T22:25:00;1.4;;;0.7;;
61570;SDS011;47463;49.884;10.010;2022-09-09T22:30:00;1.4;;;0.7;;
61570;SDS011;47463;49.884;10.010;2022-09-09T22:35:00;2.1;;;0.7;;
61570;SDS011;47463;49.884;10.010;2022-09-09T22:40:00;2.1;;;0.7;;
61570;SDS011;47463;49.884;10.010;2022-09-09T22:45:00;2.9;;;0.9;;
61570;SDS011;47463;49.884;10.010;2022-09-09T22:50:00;2.9;;;0.9;;
61570;SDS011;47463;49.884;10.010;2022-09-09T22:55:00;2.9;;;0.8;;
61570;SDS011;47463;49.884;10.010;2022-09-09T23:00:00;2.9;;;0.8;;
61570;SDS011;47463;49.884;10.010;2022-09-09T23:05:00;2.2;;;0.9;;
61570;SDS011;47463;49.884;10.010;2022-09-09T23:10:00;2.2;;;0.9;;
61570;SDS011;47463;49.884;10.010;2022-09-09T23:15:00;2.2;;;1.1;;
61570;SDS011;47463;49.884;10.010;2022-09-09T23:20:00;2.2;;;1.1;;
61570;SDS011;47463;49.884;10.010;2022-09-09T23:25:00;2.4;;;1;;
61570;SDS011;47463;49.884;10.010;2022-09-09T23:30:00;2.4;;;1;;
61570;SDS011;47463;49.884;10.010;2022-09-09T23:35:00;2.2;;;1.1;;
61570;SDS011;47463;49.884;10.010;2022-09-09T23:40:00;2.2;;;1.1;;
61570;SDS011;47463;49.884;10.010;2022-09-09T23:45:00;3.3;;;1.1;;
61570;SDS011;47463;49.884;10.010;2022-09-09T23:50:00;3.3;;;1.1;;
61570;SDS011;47463;49.884;10.010;2022-09-09T23:55:00;5;;;1.5;;
